Terminal Aerodrome Forecast
Issued by NWS Burlington, VT

Current Version | Previous Version | Text Only | Print | Product List | Glossary On
Versions: 1 2 3 4 5 6 7 8 9 10 11 12 13 14 15
000 FTUS41 KBTV 242335 AAC TAFBTV TAF AMD KBTV 242335Z 2500/2524 02008KT P6SM FEW050 BKN150 FM251000 13010G17KT 6SM BR VCSH BKN110 FM251200 14014G22KT 5SM -SN BR OVC060 FM251400 15016G25KT 2SM -SNPL BR OVC030 FM251700 16020G30KT 2SM -RASN BR OVC015 FM252200 16014G20KT P6SM VCSH OVC030=

USA.gov is the U.S. government's official web portal to all federal, state and local government web resources and services.